createdAt,value
2018-07-09T00:01:30.210Z,18.49
2018-07-09T00:03:58.794Z,18.43
2018-07-09T00:06:27.286Z,18.41
2018-07-09T00:08:55.774Z,18.39
2018-07-09T00:11:24.306Z,18.32
2018-07-09T00:13:53.603Z,18.22
2018-07-09T00:16:22.410Z,18.14
2018-07-09T00:18:51.070Z,18.16
2018-07-09T00:21:20.601Z,18.22
2018-07-09T00:23:50.160Z,18.22
2018-07-09T00:26:18.811Z,18.27
2018-07-09T00:28:47.446Z,18.26
2018-07-09T00:31:16.018Z,18.26
2018-07-09T00:33:44.627Z,18.27
2018-07-09T00:36:13.151Z,18.27
2018-07-09T00:38:41.769Z,18.29
2018-07-09T00:41:10.335Z,18.26
2018-07-09T00:43:38.914Z,18.23
2018-07-09T00:46:07.450Z,18.16
2018-07-09T00:48:36.080Z,18.15
2018-07-09T00:51:04.711Z,18.20
2018-07-09T00:53:33.253Z,18.22
2018-07-09T00:56:01.802Z,18.26
2018-07-09T00:58:30.443Z,18.24
2018-07-09T01:00:59.011Z,18.20
2018-07-09T01:03:27.603Z,18.07
2018-07-09T01:05:56.467Z,17.97
2018-07-09T01:08:24.999Z,17.98
2018-07-09T01:12:06.763Z,17.96
2018-07-09T01:14:39.346Z,17.88
2018-07-09T01:17:07.871Z,17.83
2018-07-09T01:19:36.556Z,17.84
2018-07-09T01:22:05.791Z,17.82
2018-07-09T01:24:34.403Z,17.86
2018-07-09T01:27:05.140Z,17.84
2018-07-09T01:29:34.052Z,17.73
2018-07-09T01:32:02.602Z,17.64
2018-07-09T01:34:31.094Z,17.58
2018-07-09T01:36:59.560Z,17.52
2018-07-09T01:39:28.152Z,17.47
2018-07-09T01:41:56.684Z,17.44
2018-07-09T01:44:25.166Z,17.43
2018-07-09T01:46:53.803Z,17.44
2018-07-09T01:49:22.539Z,17.47
2018-07-09T01:51:50.966Z,17.42
2018-07-09T01:54:19.547Z,17.38
2018-07-09T02:02:42.810Z,17.14
2018-07-09T02:05:11.265Z,17.05
2018-07-09T02:07:39.986Z,16.95
2018-07-09T02:10:08.575Z,16.90
2018-07-09T02:12:37.090Z,16.89
2018-07-09T02:15:05.894Z,16.85
2018-07-09T02:17:34.492Z,16.87
2018-07-09T02:20:03.003Z,16.80
2018-07-09T02:22:31.416Z,16.79
2018-07-09T02:24:59.923Z,16.77
2018-07-09T02:27:28.472Z,16.75
2018-07-09T02:29:57.135Z,16.75
2018-07-09T02:32:25.719Z,16.64
2018-07-09T02:34:54.146Z,16.62
2018-07-09T02:37:22.665Z,16.47
2018-07-09T02:39:51.136Z,16.43
2018-07-09T02:42:19.622Z,16.38
2018-07-09T02:44:48.066Z,16.31
2018-07-09T02:47:16.575Z,16.22
2018-07-09T02:49:45.037Z,16.17
2018-07-09T02:52:13.606Z,16.17
2018-07-09T02:54:42.791Z,16.11
2018-07-09T02:57:11.316Z,16.07
2018-07-09T02:59:39.763Z,16.13
2018-07-09T03:02:08.351Z,16.10
2018-07-09T03:04:37.083Z,16.09
2018-07-09T03:07:05.926Z,16.11
2018-07-09T03:09:34.439Z,16.03
2018-07-09T03:12:03.202Z,15.96
2018-07-09T03:14:31.774Z,15.89
2018-07-09T03:17:00.294Z,15.82
2018-07-09T03:19:28.999Z,15.79
2018-07-09T03:21:58.861Z,15.77
2018-07-09T03:24:27.386Z,15.83
2018-07-09T03:26:56.016Z,15.82
2018-07-09T03:29:24.521Z,15.85
2018-07-09T03:31:53.035Z,15.79
2018-07-09T03:34:21.498Z,15.74
2018-07-09T03:36:49.996Z,15.67
2018-07-09T03:39:18.554Z,15.64
2018-07-09T03:41:47.155Z,15.64
2018-07-09T03:44:15.702Z,15.61
2018-07-09T03:46:44.334Z,15.65
2018-07-09T03:49:12.942Z,15.62
2018-07-09T03:51:41.501Z,15.67
2018-07-09T03:54:09.992Z,15.68
2018-07-09T03:56:38.619Z,15.69
2018-07-09T03:59:07.340Z,15.69
2018-07-09T04:01:36.038Z,15.72
2018-07-09T04:04:04.561Z,15.74
2018-07-09T04:06:33.047Z,15.71
2018-07-09T04:09:01.532Z,15.72
2018-07-09T04:11:29.963Z,15.75
2018-07-09T04:13:58.478Z,15.76
2018-07-09T04:16:26.972Z,15.75
2018-07-09T04:18:55.516Z,15.78
2018-07-09T04:21:24.062Z,15.76
2018-07-09T04:23:52.875Z,15.76
2018-07-09T04:26:21.427Z,15.74
2018-07-09T04:28:50.143Z,15.77
2018-07-09T04:31:18.715Z,15.78
2018-07-09T04:33:47.404Z,15.85
2018-07-09T04:36:15.935Z,15.99
2018-07-09T04:38:44.418Z,16.10
2018-07-09T04:41:12.877Z,16.22
2018-07-09T04:43:41.410Z,16.26
2018-07-09T04:46:09.818Z,16.35
2018-07-09T04:48:38.384Z,16.45
2018-07-09T04:51:06.994Z,16.47
2018-07-09T04:53:35.668Z,16.51
2018-07-09T04:56:04.030Z,16.53
2018-07-09T04:58:32.566Z,16.58
2018-07-09T05:01:01.263Z,16.60
2018-07-09T05:03:29.742Z,16.73
2018-07-09T05:05:58.271Z,16.77
2018-07-09T05:08:26.790Z,16.78
2018-07-09T05:10:55.272Z,16.78
2018-07-09T05:13:23.771Z,16.80
2018-07-09T05:15:52.332Z,16.86
2018-07-09T05:18:20.890Z,16.94
2018-07-09T05:20:49.411Z,16.97
2018-07-09T05:23:18.003Z,17.00
2018-07-09T05:25:46.479Z,17.07
2018-07-09T05:28:15.210Z,17.17
2018-07-09T05:30:43.750Z,17.21
2018-07-09T05:33:12.329Z,17.30
2018-07-09T05:35:40.840Z,17.31
2018-07-09T05:38:09.309Z,17.35
2018-07-09T05:40:37.878Z,17.41
2018-07-09T05:43:06.918Z,17.50
2018-07-09T05:45:35.514Z,17.56
2018-07-09T05:48:04.990Z,17.60
2018-07-09T05:50:33.777Z,17.68
2018-07-09T05:53:02.316Z,17.76
2018-07-09T05:55:30.859Z,17.79
2018-07-09T05:57:59.360Z,17.88
2018-07-09T06:00:27.916Z,17.95
2018-07-09T06:02:56.375Z,17.99
2018-07-09T06:05:24.908Z,18.05
2018-07-09T06:07:53.468Z,18.15
2018-07-09T06:10:21.951Z,18.16
2018-07-09T06:12:50.386Z,18.23
2018-07-09T06:15:18.912Z,18.34
2018-07-09T06:17:47.418Z,18.48
2018-07-09T06:20:15.970Z,18.53
2018-07-09T06:22:44.437Z,18.56
2018-07-09T06:25:12.967Z,18.56
2018-07-09T06:27:41.527Z,18.65
2018-07-09T06:30:10.041Z,18.76
2018-07-09T06:32:38.579Z,18.85
2018-07-09T06:35:07.083Z,18.84
2018-07-09T06:37:36.086Z,18.88
2018-07-09T06:40:04.656Z,18.96
2018-07-09T06:42:33.313Z,19.00
2018-07-09T06:45:01.823Z,19.08
2018-07-09T06:47:30.347Z,19.07
2018-07-09T06:49:59.102Z,19.11
2018-07-09T06:52:27.802Z,19.21
2018-07-09T06:54:56.381Z,19.30
2018-07-09T06:57:24.910Z,19.46
2018-07-09T06:59:53.443Z,19.53
2018-07-09T07:02:22.473Z,19.55
2018-07-09T07:04:51.397Z,19.66
2018-07-09T07:07:19.862Z,19.74
2018-07-09T07:09:48.356Z,19.85
2018-07-09T07:12:17.135Z,19.84
2018-07-09T07:14:45.644Z,19.90
2018-07-09T07:17:14.219Z,19.98
2018-07-09T07:19:42.888Z,20.07
2018-07-09T07:22:11.523Z,20.13
2018-07-09T07:24:40.088Z,20.35
2018-07-09T07:27:08.659Z,20.43
2018-07-09T07:29:37.315Z,20.36
2018-07-09T07:32:05.840Z,20.50
2018-07-09T07:34:34.560Z,20.54
2018-07-09T07:37:03.115Z,20.60
2018-07-09T07:39:31.631Z,20.68
2018-07-09T07:42:00.175Z,20.78
2018-07-09T07:44:28.851Z,20.86
2018-07-09T07:46:57.466Z,20.98
2018-07-09T07:49:25.975Z,21.00
2018-07-09T07:51:54.696Z,21.04
2018-07-09T07:54:23.196Z,21.08
2018-07-09T07:56:52.056Z,21.15
2018-07-09T07:59:20.574Z,21.16
2018-07-09T08:01:49.286Z,21.20
2018-07-09T08:04:17.786Z,21.30
2018-07-09T08:06:46.309Z,21.41
2018-07-09T08:09:14.961Z,21.49
2018-07-09T08:11:48.553Z,21.57
2018-07-09T08:14:12.004Z,21.62
2018-07-09T08:16:40.554Z,21.73
2018-07-09T08:19:09.072Z,21.82
2018-07-09T08:21:37.703Z,22.02
2018-07-09T08:24:06.687Z,22.06
2018-07-09T08:26:35.291Z,22.20
2018-07-09T08:29:04.175Z,22.35
2018-07-09T08:31:32.775Z,22.49
2018-07-09T08:34:01.271Z,22.53
2018-07-09T08:36:29.939Z,22.68
2018-07-09T08:38:58.496Z,22.74
2018-07-09T08:41:26.938Z,22.79
2018-07-09T08:43:55.513Z,22.85
2018-07-09T08:46:24.016Z,22.92
2018-07-09T08:48:52.552Z,23.13
2018-07-09T08:51:21.125Z,23.23
2018-07-09T08:53:49.694Z,23.37
2018-07-09T08:56:18.528Z,23.40
2018-07-09T08:58:47.058Z,23.52
2018-07-09T09:01:15.548Z,23.65
2018-07-09T09:03:44.028Z,23.72
2018-07-09T09:06:12.499Z,23.75
2018-07-09T09:08:45.191Z,23.81
2018-07-09T09:11:13.641Z,24.08
2018-07-09T09:13:42.247Z,24.40
2018-07-09T09:16:10.719Z,24.50
2018-07-09T09:18:39.229Z,24.61
2018-07-09T09:21:08.242Z,24.80
2018-07-09T09:23:36.924Z,24.99
2018-07-09T09:26:05.691Z,25.16
2018-07-09T09:28:34.202Z,25.28
2018-07-09T09:31:02.773Z,25.38
2018-07-09T09:33:31.227Z,25.52
2018-07-09T09:35:59.931Z,25.59
2018-07-09T09:38:28.421Z,25.73
2018-07-09T09:40:56.979Z,25.98
2018-07-09T09:43:25.446Z,26.08
2018-07-09T09:45:53.934Z,26.44
2018-07-09T09:48:22.454Z,26.76
2018-07-09T09:50:50.958Z,27.09
2018-07-09T09:53:19.798Z,27.76
2018-07-09T09:55:48.389Z,28.24
2018-07-09T09:58:16.956Z,28.71
2018-07-09T10:00:51.412Z,29.03
2018-07-09T10:03:20.064Z,29.86
2018-07-09T10:05:49.378Z,30.08
2018-07-09T10:08:17.896Z,30.18
2018-07-09T10:10:46.620Z,31.15
2018-07-09T10:13:15.312Z,31.23
2018-07-09T10:15:43.799Z,31.53
2018-07-09T10:18:12.243Z,31.50
2018-07-09T10:20:40.816Z,31.86
2018-07-09T10:23:09.517Z,32.29
2018-07-09T10:25:37.968Z,32.02
2018-07-09T10:28:06.509Z,32.30
2018-07-09T10:30:35.090Z,32.49
2018-07-09T10:33:03.581Z,32.52
2018-07-09T10:35:32.068Z,32.83
2018-07-09T10:38:00.505Z,33.09
2018-07-09T10:40:29.123Z,33.65
2018-07-09T10:42:57.570Z,32.91
2018-07-09T10:45:26.095Z,33.47
2018-07-09T10:47:54.544Z,33.38
2018-07-09T10:50:23.113Z,33.38
2018-07-09T10:52:51.742Z,33.31
2018-07-09T10:55:20.305Z,33.79
2018-07-09T10:57:48.778Z,33.52
2018-07-09T11:00:17.378Z,33.14
2018-07-09T11:02:45.884Z,34.02
2018-07-09T11:05:14.408Z,34.29
2018-07-09T11:07:42.947Z,34.76
2018-07-09T11:10:11.802Z,34.48
2018-07-09T11:12:40.392Z,34.72
2018-07-09T11:15:08.908Z,34.98
2018-07-09T11:17:37.432Z,35.16
2018-07-09T11:20:06.047Z,35.37
2018-07-09T11:22:34.576Z,35.21
2018-07-09T11:25:03.309Z,34.75
2018-07-09T11:27:31.815Z,34.92
2018-07-09T11:30:00.366Z,35.37
2018-07-09T11:32:33.375Z,35.73
2018-07-09T11:35:01.947Z,35.40
2018-07-09T11:37:30.891Z,35.67
2018-07-09T11:39:59.716Z,35.89
2018-07-09T11:42:28.390Z,36.69
2018-07-09T11:44:56.915Z,36.38
2018-07-09T11:47:25.375Z,36.56
2018-07-09T11:49:53.903Z,36.56
2018-07-09T11:52:23.122Z,36.62
2018-07-09T11:54:52.480Z,36.73
2018-07-09T11:57:21.001Z,37.77
2018-07-09T11:59:49.549Z,38.22
2018-07-09T12:02:18.037Z,37.11
2018-07-09T12:04:46.516Z,37.60
2018-07-09T12:07:14.970Z,37.64
2018-07-09T12:09:43.530Z,38.55
2018-07-09T12:12:12.112Z,39.05
2018-07-09T12:14:40.658Z,39.22
2018-07-09T12:17:09.151Z,39.61
2018-07-09T12:19:37.573Z,39.33
2018-07-09T12:22:06.135Z,39.12
2018-07-09T12:24:34.759Z,39.61
2018-07-09T12:27:03.391Z,39.86
2018-07-09T12:29:31.939Z,39.88
2018-07-09T12:32:00.556Z,40.05
2018-07-09T12:34:29.067Z,38.90
2018-07-09T12:36:57.618Z,40.42
2018-07-09T12:39:26.376Z,40.91
2018-07-09T12:41:54.956Z,40.25
2018-07-09T12:44:23.651Z,40.50
2018-07-09T12:46:52.278Z,41.33
2018-07-09T12:49:20.787Z,41.04
2018-07-09T12:51:49.290Z,40.08
2018-07-09T12:54:17.890Z,41.82
2018-07-09T12:56:46.479Z,43.12
2018-07-09T12:59:15.042Z,42.30
2018-07-09T13:01:43.868Z,41.89
2018-07-09T13:04:12.518Z,41.93
2018-07-09T13:06:41.654Z,41.66
2018-07-09T13:09:10.163Z,43.05
2018-07-09T13:11:38.722Z,41.09
2018-07-09T13:14:07.474Z,41.76
2018-07-09T13:16:36.475Z,43.18
2018-07-09T13:19:05.107Z,42.23
2018-07-09T13:21:33.866Z,41.51
2018-07-09T13:24:02.495Z,43.48
2018-07-09T13:26:30.970Z,44.37
2018-07-09T13:28:59.718Z,43.83
2018-07-09T13:31:28.551Z,44.19
2018-07-09T13:33:57.215Z,44.50
2018-07-09T13:36:26.042Z,44.17
2018-07-09T13:38:54.486Z,42.88
2018-07-09T13:41:22.986Z,43.46
2018-07-09T13:43:51.479Z,44.44
2018-07-09T13:46:20.199Z,43.92
2018-07-09T13:48:48.876Z,43.99
2018-07-09T13:51:17.471Z,42.53
2018-07-09T13:53:46.068Z,42.95
2018-07-09T13:56:16.695Z,42.17
2018-07-09T13:58:45.447Z,41.59
2018-07-09T14:01:13.942Z,44.37
2018-07-09T14:03:42.566Z,43.39
2018-07-09T14:06:11.052Z,43.45
2018-07-09T14:08:39.595Z,42.40
2018-07-09T14:11:08.167Z,42.58
2018-07-09T14:13:36.781Z,43.84
2018-07-09T14:16:05.410Z,44.51
2018-07-09T14:18:34.251Z,44.05
2018-07-09T14:21:02.772Z,43.65
2018-07-09T14:23:31.291Z,45.36
2018-07-09T14:25:59.870Z,44.40
2018-07-09T14:28:28.326Z,43.74
2018-07-09T14:30:56.866Z,43.14
2018-07-09T14:33:25.414Z,42.71
2018-07-09T14:35:54.233Z,44.44
2018-07-09T14:38:22.952Z,43.76
2018-07-09T14:40:51.467Z,43.36
2018-07-09T14:43:20.032Z,44.77
2018-07-09T14:45:48.553Z,43.78
2018-07-09T14:48:17.157Z,44.82
2018-07-09T14:50:46.734Z,44.86
2018-07-09T14:53:15.475Z,44.83
2018-07-09T14:55:43.971Z,45.15
2018-07-09T14:58:12.455Z,45.07
2018-07-09T15:00:40.939Z,44.25
2018-07-09T15:03:09.496Z,45.11
2018-07-09T15:05:38.004Z,44.89
2018-07-09T15:08:06.831Z,44.36
2018-07-09T15:10:35.826Z,44.79
2018-07-09T15:13:04.496Z,44.08
2018-07-09T15:15:33.099Z,45.20
2018-07-09T15:18:01.724Z,44.37
2018-07-09T15:20:30.448Z,40.97
2018-07-09T15:22:58.909Z,42.32
2018-07-09T15:25:27.621Z,41.87
2018-07-09T15:27:56.175Z,42.27
2018-07-09T15:30:24.670Z,43.79
2018-07-09T15:32:53.278Z,44.71
2018-07-09T15:35:21.778Z,44.31
2018-07-09T15:37:50.329Z,45.28
2018-07-09T15:40:18.922Z,42.93
2018-07-09T15:42:47.403Z,42.19
2018-07-09T15:45:15.966Z,41.59
2018-07-09T15:47:44.610Z,42.65
2018-07-09T15:50:13.293Z,42.94
2018-07-09T15:52:41.826Z,41.26
2018-07-09T15:55:10.319Z,39.76
2018-07-09T15:57:38.905Z,39.45
2018-07-09T16:00:07.567Z,39.07
2018-07-09T16:02:36.362Z,37.91
2018-07-09T16:05:04.940Z,37.93
2018-07-09T16:07:33.419Z,39.71
2018-07-09T16:10:02.097Z,41.87
2018-07-09T16:12:30.697Z,41.73
2018-07-09T16:14:59.255Z,41.03
2018-07-09T16:17:27.810Z,41.17
2018-07-09T16:19:56.391Z,36.95
2018-07-09T16:22:25.197Z,37.38
2018-07-09T16:24:53.984Z,39.96
2018-07-09T16:27:22.615Z,41.58
2018-07-09T16:29:51.149Z,42.77
2018-07-09T16:32:19.954Z,43.57
2018-07-09T16:34:48.464Z,41.40
2018-07-09T16:37:17.296Z,37.83
2018-07-09T16:39:45.890Z,34.77
2018-07-09T16:42:14.552Z,32.94
2018-07-09T16:44:43.211Z,33.57
2018-07-09T16:47:11.741Z,33.06
2018-07-09T16:49:40.335Z,32.71
2018-07-09T16:52:09.115Z,33.11
2018-07-09T16:54:37.860Z,33.58
2018-07-09T16:57:06.774Z,32.62
2018-07-09T16:59:35.388Z,35.72
2018-07-09T17:02:03.967Z,39.33
2018-07-09T17:04:32.709Z,38.98
2018-07-09T17:07:01.611Z,38.25
2018-07-09T17:09:30.184Z,35.03
2018-07-09T17:11:58.676Z,36.07
2018-07-09T17:14:27.193Z,37.32
2018-07-09T17:16:55.783Z,37.59
2018-07-09T17:19:24.531Z,37.81
2018-07-09T17:21:53.230Z,39.72
2018-07-09T17:24:21.702Z,40.65
2018-07-09T17:26:50.353Z,40.98
2018-07-09T17:29:18.785Z,42.98
2018-07-09T17:31:47.238Z,40.82
2018-07-09T17:34:15.747Z,40.18
2018-07-09T17:36:44.383Z,40.30
2018-07-09T17:39:12.808Z,40.04
2018-07-09T17:41:41.322Z,39.07
2018-07-09T17:44:09.808Z,38.63
2018-07-09T17:46:38.302Z,37.72
2018-07-09T17:49:06.896Z,35.35
2018-07-09T17:51:35.415Z,33.03
2018-07-09T17:54:05.513Z,31.47
2018-07-09T17:56:34.111Z,30.53
2018-07-09T17:59:02.707Z,30.17
2018-07-09T18:01:31.419Z,29.44
2018-07-09T18:03:59.888Z,29.21
2018-07-09T18:06:28.687Z,28.74
2018-07-09T18:08:57.183Z,28.52
2018-07-09T18:11:25.748Z,28.27
2018-07-09T18:13:54.611Z,27.97
2018-07-09T18:16:23.179Z,27.97
2018-07-09T18:18:51.735Z,28.02
2018-07-09T18:21:20.256Z,27.99
2018-07-09T18:23:48.819Z,28.00
2018-07-09T18:26:17.371Z,27.98
2018-07-09T18:28:45.850Z,27.88
2018-07-09T18:31:14.379Z,27.91
2018-07-09T18:33:42.845Z,27.92
2018-07-09T18:36:11.298Z,27.86
2018-07-09T18:38:40.326Z,27.76
2018-07-09T18:41:08.871Z,27.69
2018-07-09T18:43:37.498Z,27.44
2018-07-09T18:46:06.488Z,27.20
2018-07-09T18:48:35.230Z,27.03
2018-07-09T18:51:03.869Z,26.89
2018-07-09T18:53:32.464Z,26.76
2018-07-09T18:56:00.998Z,26.58
2018-07-09T18:58:29.734Z,26.44
2018-07-09T19:00:58.182Z,26.31
2018-07-09T19:03:26.702Z,26.19
2018-07-09T19:06:37.007Z,26.01
2018-07-09T19:09:06.354Z,25.82
2018-07-09T19:11:35.086Z,25.67
2018-07-09T19:14:03.646Z,25.52
2018-07-09T19:16:36.607Z,25.39
2018-07-09T19:19:16.371Z,25.32
2018-07-09T19:21:57.044Z,25.19
2018-07-09T19:24:24.367Z,25.04
2018-07-09T19:26:51.779Z,24.94
2018-07-09T19:29:19.110Z,24.85
2018-07-09T19:31:46.347Z,24.76
2018-07-09T19:34:13.632Z,24.66
2018-07-09T19:36:40.923Z,24.50
2018-07-09T19:39:08.931Z,24.40
2018-07-09T19:41:36.181Z,24.30
2018-07-09T19:44:03.466Z,24.26
2018-07-09T19:46:30.775Z,24.20
2018-07-09T19:48:58.069Z,24.10
2018-07-09T19:51:25.471Z,24.01
2018-07-09T19:53:52.795Z,23.95
2018-07-09T19:56:20.110Z,23.78
2018-07-09T19:58:47.417Z,23.66
2018-07-09T20:01:15.482Z,23.58
2018-07-09T20:03:42.767Z,23.50
2018-07-09T20:06:10.031Z,23.40
2018-07-09T20:08:42.746Z,23.37
2018-07-09T20:11:15.342Z,23.38
2018-07-09T20:13:51.691Z,23.37
2018-07-09T20:16:24.240Z,23.33
2018-07-09T20:18:53.134Z,23.25
2018-07-09T20:21:20.387Z,23.18
2018-07-09T20:23:47.655Z,23.10
2018-07-09T20:26:14.903Z,23.06
2018-07-09T20:28:42.211Z,23.03
2018-07-09T20:31:09.472Z,22.98
2018-07-09T20:33:36.722Z,22.88
2018-07-09T20:36:04.007Z,22.82
2018-07-09T20:38:31.306Z,22.81
2018-07-09T20:40:58.703Z,22.77
2018-07-09T20:43:26.137Z,22.68
2018-07-09T20:45:53.423Z,22.60
2018-07-09T20:48:20.713Z,22.57
2018-07-09T20:50:47.983Z,22.53
2018-07-09T20:53:15.218Z,22.47
2018-07-09T20:55:42.483Z,22.34
2018-07-09T20:58:09.758Z,22.32
2018-07-09T21:00:37.015Z,22.23
2018-07-09T21:03:06.305Z,22.19
2018-07-09T21:05:33.802Z,22.13
2018-07-09T21:08:01.066Z,22.13
2018-07-09T21:10:28.421Z,22.10
2018-07-09T21:12:57.708Z,22.07
2018-07-09T21:15:26.374Z,22.10
2018-07-09T21:17:53.717Z,22.11
2018-07-09T21:20:21.071Z,22.03
2018-07-09T21:22:48.847Z,22.03
2018-07-09T21:25:16.935Z,21.93
2018-07-09T21:27:44.265Z,21.93
2018-07-09T21:30:11.823Z,22.00
2018-07-09T21:32:39.059Z,22.15
2018-07-09T21:35:06.329Z,22.14
2018-07-09T21:37:33.728Z,22.10
2018-07-09T21:40:01.010Z,22.01
2018-07-09T21:42:28.374Z,21.93
2018-07-09T21:44:55.639Z,21.78
2018-07-09T21:47:23.013Z,21.77
2018-07-09T21:49:50.617Z,21.70
2018-07-09T21:52:17.930Z,21.58
2018-07-09T21:54:45.467Z,21.49
2018-07-09T21:57:12.735Z,21.42
2018-07-09T21:59:39.982Z,21.28
2018-07-09T22:02:07.235Z,21.22
2018-07-09T22:04:34.501Z,21.18
2018-07-09T22:07:02.752Z,21.22
2018-07-09T22:09:30.033Z,21.18
2018-07-09T22:11:57.431Z,21.14
2018-07-09T22:14:24.661Z,21.06
2018-07-09T22:16:51.903Z,21.02
2018-07-09T22:19:19.185Z,21.00
2018-07-09T22:21:46.451Z,21.03
2018-07-09T22:24:13.698Z,21.07
2018-07-09T22:26:40.943Z,21.02
2018-07-09T22:29:08.206Z,21.00
2018-07-09T22:31:36.726Z,20.97
2018-07-09T22:34:05.216Z,21.01
2018-07-09T22:36:33.744Z,20.93
2018-07-09T22:39:02.174Z,20.84
2018-07-09T22:41:30.882Z,20.75
2018-07-09T22:44:10.624Z,20.67
2018-07-09T22:46:39.167Z,20.54
2018-07-09T22:49:07.694Z,20.48
2018-07-09T22:51:36.301Z,20.37
2018-07-09T22:54:05.028Z,20.29
2018-07-09T22:56:33.707Z,20.21
2018-07-09T22:59:02.260Z,20.16
2018-07-09T23:01:30.732Z,20.03
2018-07-09T23:03:59.207Z,19.88
2018-07-09T23:06:27.823Z,19.78
2018-07-09T23:09:06.210Z,19.65
2018-07-09T23:13:53.734Z,19.54
2018-07-09T23:16:45.738Z,19.41
2018-07-09T23:19:27.339Z,19.41
2018-07-09T23:22:07.068Z,19.34
2018-07-09T23:24:34.535Z,19.25
2018-07-09T23:27:01.785Z,19.23
2018-07-09T23:29:29.053Z,19.17
2018-07-09T23:31:56.286Z,19.10
2018-07-09T23:34:23.552Z,19.08
2018-07-09T23:36:50.786Z,19.16
2018-07-09T23:39:18.086Z,19.16
2018-07-09T23:41:45.411Z,19.10
2018-07-09T23:44:12.671Z,19.09
2018-07-09T23:46:39.904Z,19.01
2018-07-09T23:49:07.191Z,18.96
2018-07-09T23:51:34.553Z,18.94
2018-07-09T23:54:01.840Z,18.88
2018-07-09T23:59:42.768Z,18.82
